createdAt,value
2023-05-14T00:00:58.541Z,0
2023-05-14T00:02:07.000Z,0
2023-05-14T00:03:31.184Z,0
2023-05-14T00:04:39.000Z,0
2023-05-14T00:06:02.597Z,0
2023-05-14T00:07:11.000Z,0
2023-05-14T00:08:34.985Z,0
2023-05-14T00:09:51.177Z,0
2023-05-14T00:10:59.000Z,0
2023-05-14T00:12:16.000Z,0
2023-05-14T00:13:39.518Z,0
2023-05-14T00:14:48.000Z,0
2023-05-14T00:16:04.000Z,0
2023-05-14T00:17:20.000Z,0
2023-05-14T00:18:24.000Z,0
2023-05-14T00:18:44.303Z,0
2023-05-14T00:20:00.499Z,0
2023-05-14T00:21:16.940Z,0
2023-05-14T00:22:32.156Z,0
2023-05-14T00:23:48.344Z,0
2023-05-14T00:26:20.495Z,0
2023-05-14T00:27:29.000Z,0
2023-05-14T00:28:52.888Z,0
2023-05-14T00:30:09.084Z,0
2023-05-14T00:31:25.524Z,0
2023-05-14T00:32:34.000Z,0
2023-05-14T00:33:57.673Z,0
2023-05-14T00:35:13.869Z,0
2023-05-14T00:36:30.066Z,0
2023-05-14T00:37:46.507Z,0
2023-05-14T00:39:01.720Z,0
2023-05-14T00:40:17.915Z,0
2023-05-14T00:41:34.115Z,0
2023-05-14T00:42:42.000Z,0
2023-05-14T00:43:47.000Z,0
2023-05-14T00:44:06.508Z,0
2023-05-14T00:45:15.000Z,0
2023-05-14T00:46:31.000Z,0
2023-05-14T00:47:47.000Z,0
2023-05-14T00:49:11.297Z,0
2023-05-14T00:51:36.000Z,0
2023-05-14T00:52:52.000Z,0
2023-05-14T00:54:08.000Z,0
2023-05-14T00:55:23.000Z,0
2023-05-14T00:56:39.000Z,0
2023-05-14T00:58:03.432Z,0
2023-05-14T00:59:19.628Z,0
2023-05-14T01:00:35.823Z,0
2023-05-14T01:01:44.000Z,0
2023-05-14T01:03:08.455Z,0
2023-05-14T01:04:24.411Z,0
2023-05-14T01:05:33.000Z,0
2023-05-14T01:06:56.804Z,0
2023-05-14T01:08:05.000Z,0
2023-05-14T01:09:21.000Z,0
2023-05-14T01:10:45.640Z,0
2023-05-14T01:12:00.853Z,0
2023-05-14T01:13:16.800Z,0
2023-05-14T01:14:25.000Z,0
2023-05-14T01:15:49.437Z,0
2023-05-14T01:16:58.000Z,0
2023-05-14T01:18:21.584Z,0
2023-05-14T01:19:37.780Z,0
2023-05-14T01:20:53.976Z,0
2023-05-14T01:22:10.414Z,0
2023-05-14T01:23:19.000Z,0
2023-05-14T01:24:42.563Z,0
2023-05-14T01:25:51.000Z,0
2023-05-14T01:27:07.000Z,0
2023-05-14T01:28:30.416Z,0
2023-05-14T01:29:39.000Z,0
2023-05-14T01:30:55.000Z,0
2023-05-14T01:32:11.000Z,0
2023-05-14T01:33:27.000Z,0
2023-05-14T01:34:51.396Z,0
2023-05-14T01:36:07.344Z,0
2023-05-14T01:37:23.791Z,0
2023-05-14T01:38:32.000Z,0
2023-05-14T01:39:56.184Z,0
2023-05-14T01:41:12.128Z,0
2023-05-14T01:42:28.577Z,0
2023-05-14T01:43:37.000Z,0
2023-05-14T01:44:52.000Z,0
2023-05-14T01:46:15.929Z,0
2023-05-14T01:47:24.000Z,0
2023-05-14T01:48:41.000Z,0
2023-05-14T01:50:04.518Z,0
2023-05-14T01:51:20.714Z,0
2023-05-14T01:52:36.182Z,0
2023-05-14T01:53:44.000Z,0
2023-05-14T01:55:08.578Z,0
2023-05-14T01:56:17.000Z,0
2023-05-14T01:57:33.000Z,0
2023-05-14T01:58:49.000Z,0
2023-05-14T02:00:13.361Z,0
2023-05-14T02:01:29.304Z,0
2023-05-14T02:02:38.000Z,0
2023-05-14T02:03:54.000Z,0
2023-05-14T02:05:18.143Z,0
2023-05-14T02:06:26.000Z,0
2023-05-14T02:07:42.000Z,0
2023-05-14T02:08:58.000Z,0
2023-05-14T02:10:21.931Z,0
2023-05-14T02:11:19.000Z,0
2023-05-14T02:11:30.000Z,0
2023-05-14T02:12:54.072Z,0
2023-05-14T02:14:10.266Z,0
2023-05-14T02:15:19.000Z,0
2023-05-14T02:16:35.000Z,0
2023-05-14T02:19:07.000Z,0
2023-05-14T02:20:31.235Z,0
2023-05-14T02:21:40.000Z,0
2023-05-14T02:23:03.865Z,0
2023-05-14T02:24:12.000Z,0
2023-05-14T02:25:27.000Z,0
2023-05-14T02:26:51.473Z,0
2023-05-14T02:28:07.413Z,0
2023-05-14T02:29:16.000Z,0
2023-05-14T02:30:32.000Z,0
2023-05-14T02:31:56.237Z,0
2023-05-14T02:33:04.000Z,0
2023-05-14T02:34:21.000Z,0
2023-05-14T02:35:37.000Z,0
2023-05-14T02:37:01.014Z,0
2023-05-14T02:38:09.000Z,0
2023-05-14T02:39:25.000Z,0
2023-05-14T02:40:49.352Z,0
2023-05-14T02:42:04.562Z,0
2023-05-14T02:43:13.000Z,0
2023-05-14T02:44:36.950Z,0
2023-05-14T02:45:34.000Z,0
2023-05-14T02:45:45.000Z,0
2023-05-14T02:47:09.582Z,0
2023-05-14T02:48:25.773Z,0
2023-05-14T02:49:34.000Z,0
2023-05-14T02:50:58.178Z,0
2023-05-14T02:53:30.306Z,0
2023-05-14T02:54:39.000Z,0
2023-05-14T02:55:55.000Z,0
2023-05-14T02:57:19.135Z,0
2023-05-14T02:58:35.081Z,0
2023-05-14T02:59:42.000Z,0
2023-05-14T03:01:06.485Z,0
2023-05-14T03:02:15.000Z,0
2023-05-14T03:03:31.000Z,0
2023-05-14T03:04:47.000Z,0
2023-05-14T03:06:11.511Z,0
2023-05-14T03:07:27.454Z,0
2023-05-14T03:08:36.000Z,0
2023-05-14T03:09:52.000Z,0
2023-05-14T03:11:16.036Z,0
2023-05-14T03:12:24.000Z,0
2023-05-14T03:13:41.000Z,0
2023-05-14T03:15:04.618Z,0
2023-05-14T03:16:19.828Z,0
2023-05-14T03:17:28.000Z,0
2023-05-14T03:18:52.215Z,0
2023-05-14T03:20:08.653Z,0
2023-05-14T03:21:24.603Z,0
2023-05-14T03:22:33.000Z,0
2023-05-14T03:23:56.990Z,0
2023-05-14T03:25:05.000Z,0
2023-05-14T03:26:22.000Z,0
2023-05-14T03:27:38.000Z,0
2023-05-14T03:28:54.000Z,0
2023-05-14T03:30:18.203Z,0
2023-05-14T03:31:34.402Z,0
2023-05-14T03:32:42.000Z,0
2023-05-14T03:34:05.803Z,0
2023-05-14T03:35:14.000Z,0
2023-05-14T03:36:38.191Z,0
2023-05-14T03:37:46.000Z,0
2023-05-14T03:39:10.573Z,0
2023-05-14T03:40:19.000Z,0
2023-05-14T03:41:42.721Z,0
2023-05-14T03:42:51.000Z,0
2023-05-14T03:44:15.351Z,0
2023-05-14T03:45:31.544Z,0
2023-05-14T03:46:47.496Z,5
2023-05-14T03:47:56.000Z,5
2023-05-14T03:49:11.000Z,5
2023-05-14T03:50:27.000Z,5
2023-05-14T03:51:51.530Z,5
2023-05-14T03:53:07.733Z,5
2023-05-14T03:54:16.000Z,5
2023-05-14T03:55:39.869Z,11
2023-05-14T03:56:48.000Z,11
2023-05-14T03:58:04.000Z,11
2023-05-14T03:59:28.705Z,11
2023-05-14T04:00:37.000Z,11
2023-05-14T04:02:00.838Z,11
2023-05-14T04:03:09.000Z,16
2023-05-14T04:04:25.000Z,16
2023-05-14T04:05:41.000Z,16
2023-05-14T04:07:04.878Z,16
2023-05-14T04:08:13.000Z,22
2023-05-14T04:09:37.017Z,22
2023-05-14T04:10:45.000Z,22
2023-05-14T04:12:02.000Z,22
2023-05-14T04:13:25.843Z,22
2023-05-14T04:14:41.793Z,28
2023-05-14T04:15:58.234Z,28
2023-05-14T04:17:14.436Z,28
2023-05-14T04:18:30.617Z,28
2023-05-14T04:19:46.568Z,28
2023-05-14T04:20:55.000Z,33
2023-05-14T04:22:17.973Z,33
2023-05-14T04:23:34.412Z,33
2023-05-14T04:24:50.360Z,33
2023-05-14T04:25:59.000Z,39
2023-05-14T04:27:22.747Z,39
2023-05-14T04:28:20.000Z,45
2023-05-14T04:28:39.201Z,39
2023-05-14T04:29:55.388Z,39
2023-05-14T04:31:04.000Z,45
2023-05-14T04:32:20.000Z,45
2023-05-14T04:33:43.716Z,45
2023-05-14T04:36:16.104Z,50
2023-05-14T04:37:32.562Z,50
2023-05-14T04:38:47.753Z,50
2023-05-14T04:40:03.701Z,50
2023-05-14T04:41:12.000Z,50
2023-05-14T04:42:28.000Z,56
2023-05-14T04:43:52.526Z,56
2023-05-14T04:45:01.000Z,56
2023-05-14T04:46:17.000Z,56
2023-05-14T04:47:40.864Z,61
2023-05-14T04:48:57.311Z,61
2023-05-14T04:50:05.000Z,61
2023-05-14T04:51:22.000Z,61
2023-05-14T04:52:38.000Z,61
2023-05-14T04:54:01.833Z,67
2023-05-14T04:55:17.294Z,67
2023-05-14T04:56:25.000Z,67
2023-05-14T04:57:49.431Z,73
2023-05-14T04:58:58.000Z,73
2023-05-14T05:00:22.061Z,78
2023-05-14T05:01:38.259Z,90
2023-05-14T05:02:54.206Z,123
2023-05-14T05:04:03.000Z,123
2023-05-14T05:05:26.593Z,118
2023-05-14T05:06:43.033Z,112
2023-05-14T05:07:51.000Z,112
2023-05-14T05:09:07.000Z,118
2023-05-14T05:10:24.000Z,118
2023-05-14T05:11:46.578Z,123
2023-05-14T05:13:02.772Z,123
2023-05-14T05:14:11.000Z,129
2023-05-14T05:15:35.160Z,146
2023-05-14T05:16:44.000Z,180
2023-05-14T05:18:07.547Z,180
2023-05-14T05:19:16.000Z,163
2023-05-14T05:20:32.000Z,180
2023-05-14T05:21:48.000Z,208
2023-05-14T05:23:12.323Z,219
2023-05-14T05:24:21.000Z,213
2023-05-14T05:25:44.711Z,163
2023-05-14T05:26:53.000Z,163
2023-05-14T05:28:16.115Z,174
2023-05-14T05:29:24.000Z,247
2023-05-14T05:30:41.000Z,219
2023-05-14T05:31:57.000Z,163
2023-05-14T05:33:13.000Z,168
2023-05-14T05:34:29.000Z,168
2023-05-14T05:35:45.000Z,185
2023-05-14T05:37:09.728Z,202
2023-05-14T05:38:18.000Z,191
2023-05-14T05:39:34.000Z,202
2023-05-14T05:40:50.000Z,202
2023-05-14T05:42:14.490Z,202
2023-05-14T05:43:30.438Z,202
2023-05-14T05:44:38.000Z,180
2023-05-14T05:46:01.842Z,213
2023-05-14T05:47:10.000Z,247
2023-05-14T05:48:34.230Z,202
2023-05-14T05:49:50.668Z,208
2023-05-14T05:50:59.000Z,202
2023-05-14T05:52:22.811Z,202
2023-05-14T05:53:39.253Z,225
2023-05-14T05:54:55.442Z,298
2023-05-14T05:56:11.644Z,230
2023-05-14T05:57:20.000Z,247
2023-05-14T05:58:36.000Z,315
2023-05-14T06:00:00.221Z,247
2023-05-14T06:01:15.437Z,241
2023-05-14T06:02:31.377Z,247
2023-05-14T06:03:47.810Z,236
2023-05-14T06:04:56.000Z,258
2023-05-14T06:06:20.206Z,258
2023-05-14T06:07:35.420Z,292
2023-05-14T06:08:51.606Z,337
2023-05-14T06:10:07.810Z,376
2023-05-14T06:11:23.995Z,331
2023-05-14T06:12:32.000Z,309
2023-05-14T06:13:56.141Z,343
2023-05-14T06:15:12.582Z,534
2023-05-14T06:16:28.771Z,720
2023-05-14T06:17:44.723Z,810
2023-05-14T06:19:01.158Z,922
2023-05-14T06:20:17.351Z,1012
2023-05-14T06:21:33.303Z,1029
2023-05-14T06:22:42.000Z,1074
2023-05-14T06:24:04.707Z,1080
2023-05-14T06:25:13.000Z,1080
2023-05-14T06:26:37.341Z,1108
2023-05-14T06:27:45.000Z,1125
2023-05-14T06:29:09.481Z,1091
2023-05-14T06:30:18.000Z,1035
2023-05-14T06:31:42.110Z,843
2023-05-14T06:32:50.000Z,776
2023-05-14T06:34:14.256Z,787
2023-05-14T06:35:23.000Z,815
2023-05-14T06:36:46.643Z,860
2023-05-14T06:37:55.000Z,866
2023-05-14T06:39:19.281Z,849
2023-05-14T06:40:26.000Z,596
2023-05-14T06:41:50.675Z,281
2023-05-14T06:43:06.627Z,230
2023-05-14T06:44:22.821Z,219
2023-05-14T06:45:39.014Z,208
2023-05-14T06:46:47.000Z,196
2023-05-14T06:48:04.000Z,196
2023-05-14T06:49:27.596Z,196
2023-05-14T06:50:36.000Z,180
2023-05-14T06:52:00.241Z,163
2023-05-14T06:53:08.000Z,196
2023-05-14T06:54:32.615Z,202
2023-05-14T06:55:48.804Z,174
2023-05-14T06:57:04.024Z,180
2023-05-14T06:58:12.000Z,180
2023-05-14T06:59:28.000Z,174
2023-05-14T07:00:52.600Z,174
2023-05-14T07:02:08.549Z,163
2023-05-14T07:03:17.000Z,163
2023-05-14T07:04:33.000Z,174
2023-05-14T07:05:49.000Z,180
2023-05-14T07:07:05.000Z,180
2023-05-14T07:08:29.518Z,180
2023-05-14T07:09:45.958Z,180
2023-05-14T07:11:02.148Z,180
2023-05-14T07:12:10.000Z,180
2023-05-14T07:13:33.552Z,180
2023-05-14T07:14:49.000Z,174
2023-05-14T07:15:58.000Z,180
2023-05-14T07:17:22.145Z,180
2023-05-14T07:18:38.326Z,180
2023-05-14T07:19:54.276Z,180
2023-05-14T07:21:10.470Z,180
2023-05-14T07:22:19.000Z,180
2023-05-14T07:23:35.000Z,180
2023-05-14T07:24:59.052Z,180
2023-05-14T07:26:07.000Z,180
2023-05-14T07:27:31.439Z,180
2023-05-14T07:28:40.000Z,180
2023-05-14T07:30:02.843Z,180
2023-05-14T07:31:11.000Z,180
2023-05-14T07:32:35.230Z,180
2023-05-14T07:33:44.000Z,180
2023-05-14T07:34:48.000Z,180
2023-05-14T07:35:07.617Z,180
2023-05-14T07:36:24.062Z,180
2023-05-14T07:37:40.004Z,180
2023-05-14T07:38:56.198Z,180
2023-05-14T07:40:12.633Z,180
2023-05-14T07:42:44.779Z,180
2023-05-14T07:43:53.000Z,180
2023-05-14T07:45:09.000Z,180
2023-05-14T07:46:25.000Z,180
2023-05-14T07:47:41.000Z,180
2023-05-14T07:49:04.763Z,180
2023-05-14T07:50:20.956Z,180
2023-05-14T07:51:37.150Z,180
2023-05-14T07:52:45.000Z,180
2023-05-14T07:54:09.783Z,180
2023-05-14T07:55:25.975Z,180
2023-05-14T07:56:42.174Z,180
2023-05-14T07:57:58.382Z,180
2023-05-14T07:59:14.313Z,180
2023-05-14T08:00:30.749Z,180
2023-05-14T08:01:39.000Z,180
2023-05-14T08:03:02.159Z,180
2023-05-14T08:04:10.000Z,180
2023-05-14T08:05:26.000Z,180
2023-05-14T08:06:43.000Z,180
2023-05-14T08:07:59.000Z,180
2023-05-14T08:09:23.132Z,180
2023-05-14T08:10:31.000Z,180
2023-05-14T08:11:55.265Z,180
2023-05-14T08:13:11.459Z,185
2023-05-14T08:14:27.896Z,180
2023-05-14T08:15:36.000Z,180
2023-05-14T08:16:52.000Z,180
2023-05-14T08:18:16.233Z,180
2023-05-14T08:19:31.694Z,180
2023-05-14T08:20:40.000Z,180
2023-05-14T08:22:04.075Z,180
2023-05-14T08:23:20.024Z,180
2023-05-14T08:24:36.217Z,180
2023-05-14T08:25:52.656Z,180
2023-05-14T08:27:08.847Z,180
2023-05-14T08:28:17.000Z,180
2023-05-14T08:29:33.000Z,180
2023-05-14T08:30:49.000Z,180
2023-05-14T08:32:05.000Z,180
2023-05-14T08:33:29.816Z,180
2023-05-14T08:34:38.000Z,180
2023-05-14T08:35:53.000Z,180
2023-05-14T08:37:09.000Z,180
2023-05-14T08:38:33.364Z,180
2023-05-14T08:39:49.804Z,180
2023-05-14T08:41:06.001Z,180
2023-05-14T08:42:21.945Z,180
2023-05-14T08:43:38.138Z,180
2023-05-14T08:44:46.000Z,180
2023-05-14T08:46:10.781Z,180
2023-05-14T08:47:19.000Z,180
2023-05-14T08:48:42.913Z,180
2023-05-14T08:49:51.000Z,180
2023-05-14T08:51:07.000Z,180
2023-05-14T08:52:23.000Z,180
2023-05-14T08:53:46.950Z,185
2023-05-14T08:55:03.151Z,185
2023-05-14T08:56:19.338Z,185
2023-05-14T08:57:35.528Z,180
2023-05-14T08:58:51.478Z,180
2023-05-14T09:00:07.915Z,185
2023-05-14T09:01:24.116Z,185
2023-05-14T09:02:32.000Z,185
2023-05-14T09:03:56.253Z,185
2023-05-14T09:05:05.000Z,185
2023-05-14T09:06:28.641Z,185
2023-05-14T09:07:37.000Z,185
2023-05-14T09:09:00.045Z,185
2023-05-14T09:10:08.000Z,185
2023-05-14T09:11:32.431Z,185
2023-05-14T09:12:48.625Z,185
2023-05-14T09:13:57.000Z,185
2023-05-14T09:15:13.000Z,185
2023-05-14T09:16:29.000Z,185
2023-05-14T09:17:53.399Z,185
2023-05-14T09:19:09.835Z,185
2023-05-14T09:20:26.043Z,185
2023-05-14T09:21:34.000Z,185
2023-05-14T09:22:50.000Z,185
2023-05-14T09:24:14.367Z,185
2023-05-14T09:25:22.000Z,185
2023-05-14T09:26:46.026Z,185
2023-05-14T09:27:54.000Z,185
2023-05-14T09:29:18.157Z,180
2023-05-14T09:30:26.000Z,185
2023-05-14T09:31:50.545Z,185
2023-05-14T09:32:59.000Z,180
2023-05-14T09:34:23.182Z,180
2023-05-14T09:35:31.000Z,180
2023-05-14T09:36:55.570Z,180
2023-05-14T09:38:04.000Z,180
2023-05-14T09:39:20.000Z,180
2023-05-14T09:40:36.000Z,180
2023-05-14T09:41:59.358Z,180
2023-05-14T09:43:07.000Z,180
2023-05-14T09:44:31.498Z,185
2023-05-14T09:45:40.000Z,185
2023-05-14T09:47:04.141Z,191
2023-05-14T09:48:20.323Z,191
2023-05-14T09:49:36.272Z,191
2023-05-14T09:50:45.000Z,191
2023-05-14T09:52:08.659Z,185
2023-05-14T09:53:17.000Z,180
2023-05-14T09:54:41.047Z,185
2023-05-14T09:55:49.000Z,185
2023-05-14T09:57:13.434Z,185
2023-05-14T09:58:28.887Z,185
2023-05-14T09:59:37.000Z,185
2023-05-14T10:00:53.000Z,191
2023-05-14T10:02:09.000Z,185
2023-05-14T10:03:25.000Z,185
2023-05-14T10:04:49.613Z,185
2023-05-14T10:06:05.807Z,185
2023-05-14T10:07:22.001Z,191
2023-05-14T10:08:30.000Z,196
2023-05-14T10:09:54.388Z,202
2023-05-14T10:11:03.000Z,213
2023-05-14T10:12:26.776Z,202
2023-05-14T10:13:35.000Z,213
2023-05-14T10:14:58.180Z,219
2023-05-14T10:16:06.000Z,213
2023-05-14T10:17:23.000Z,196
2023-05-14T10:18:39.000Z,191
2023-05-14T10:19:55.000Z,185
2023-05-14T10:21:11.000Z,202
2023-05-14T10:22:34.604Z,196
2023-05-14T10:23:50.799Z,196
2023-05-14T10:25:06.996Z,191
2023-05-14T10:26:15.000Z,196
2023-05-14T10:28:47.000Z,196
2023-05-14T10:30:04.000Z,191
2023-05-14T10:31:20.000Z,185
2023-05-14T10:32:36.000Z,174
2023-05-14T10:34:00.105Z,191
2023-05-14T10:35:08.000Z,185
2023-05-14T10:36:32.741Z,191
2023-05-14T10:37:41.000Z,191
2023-05-14T10:39:04.138Z,157
2023-05-14T10:40:12.000Z,202
2023-05-14T10:41:36.532Z,219
2023-05-14T10:42:45.000Z,225
2023-05-14T10:43:49.000Z,247
2023-05-14T10:44:01.000Z,208
2023-05-14T10:45:25.111Z,213
2023-05-14T10:46:33.000Z,275
2023-05-14T10:47:49.000Z,309
2023-05-14T10:49:13.445Z,286
2023-05-14T10:51:38.000Z,241
2023-05-14T10:52:54.000Z,219
2023-05-14T10:54:10.000Z,230
2023-05-14T10:55:25.000Z,219
2023-05-14T10:56:49.623Z,213
2023-05-14T10:57:58.000Z,230
2023-05-14T10:59:14.000Z,225
2023-05-14T11:00:38.452Z,219
2023-05-14T11:01:54.640Z,208
2023-05-14T11:03:03.000Z,208
2023-05-14T11:04:26.786Z,191
2023-05-14T11:05:42.979Z,236
2023-05-14T11:06:51.000Z,225
2023-05-14T11:08:15.367Z,208
2023-05-14T11:09:24.000Z,191
2023-05-14T11:10:48.006Z,202
2023-05-14T11:12:03.212Z,258
2023-05-14T11:13:19.412Z,286
2023-05-14T11:14:27.000Z,348
2023-05-14T11:15:51.792Z,421
2023-05-14T11:17:00.000Z,517
2023-05-14T11:18:23.932Z,534
2023-05-14T11:19:32.000Z,528
2023-05-14T11:20:56.320Z,495
2023-05-14T11:22:12.514Z,506
2023-05-14T11:23:28.707Z,455
2023-05-14T11:24:45.143Z,393
2023-05-14T11:26:01.349Z,360
2023-05-14T11:27:17.288Z,343
2023-05-14T11:28:25.000Z,303
2023-05-14T11:29:48.946Z,281
2023-05-14T11:30:57.000Z,275
2023-05-14T11:32:13.000Z,275
2023-05-14T11:33:37.272Z,253
2023-05-14T11:34:46.000Z,236
2023-05-14T11:36:09.660Z,219
2023-05-14T11:37:26.095Z,196
2023-05-14T11:38:42.297Z,168
2023-05-14T11:39:58.244Z,151
2023-05-14T11:41:06.000Z,146
2023-05-14T11:42:23.000Z,140
2023-05-14T11:43:46.829Z,129
2023-05-14T11:46:00.574Z,123
2023-05-14T11:46:18.482Z,129
2023-05-14T11:47:26.000Z,140
2023-05-14T11:48:50.626Z,151
2023-05-14T11:49:59.000Z,163
2023-05-14T11:51:23.262Z,168
2023-05-14T11:52:39.452Z,174
2023-05-14T11:53:55.406Z,191
2023-05-14T11:55:04.000Z,208
2023-05-14T11:56:20.000Z,225
2023-05-14T11:57:44.238Z,230
2023-05-14T11:59:00.186Z,230
2023-05-14T12:00:08.000Z,247
2023-05-14T12:01:31.837Z,270
2023-05-14T12:02:40.000Z,281
2023-05-14T12:04:03.983Z,292
2023-05-14T12:05:20.423Z,298
2023-05-14T12:06:36.627Z,298
2023-05-14T12:07:52.816Z,320
2023-05-14T12:09:08.766Z,320
2023-05-14T12:10:17.000Z,343
2023-05-14T12:11:33.000Z,354
2023-05-14T12:12:49.000Z,360
2023-05-14T12:14:06.000Z,365
2023-05-14T12:15:22.000Z,399
2023-05-14T12:16:25.000Z,444
2023-05-14T12:16:45.939Z,433
2023-05-14T12:17:53.000Z,466
2023-05-14T12:19:17.590Z,450
2023-05-14T12:20:26.000Z,433
2023-05-14T12:21:49.984Z,433
2023-05-14T12:24:14.000Z,444
2023-05-14T12:25:30.000Z,461
2023-05-14T12:26:47.000Z,433
2023-05-14T12:28:03.000Z,421
2023-05-14T12:29:19.000Z,405
2023-05-14T12:30:35.000Z,399
2023-05-14T12:31:59.301Z,421
2023-05-14T12:33:15.744Z,416
2023-05-14T12:34:23.000Z,393
2023-05-14T12:35:39.000Z,427
2023-05-14T12:37:03.099Z,444
2023-05-14T12:38:11.000Z,461
2023-05-14T12:39:35.490Z,500
2023-05-14T12:40:44.000Z,483
2023-05-14T12:42:00.000Z,511
2023-05-14T12:43:16.000Z,528
2023-05-14T12:44:40.518Z,540
2023-05-14T12:45:48.000Z,506
2023-05-14T12:47:05.000Z,506
2023-05-14T12:48:21.000Z,506
2023-05-14T12:49:37.000Z,506
2023-05-14T12:51:00.266Z,483
2023-05-14T12:52:16.462Z,444
2023-05-14T12:53:13.000Z,472
2023-05-14T12:53:25.000Z,438
2023-05-14T12:54:48.854Z,444
2023-05-14T12:56:05.291Z,455
2023-05-14T12:57:13.000Z,455
2023-05-14T12:58:37.441Z,461
2023-05-14T13:01:02.000Z,466
2023-05-14T13:02:26.028Z,466
2023-05-14T13:03:34.000Z,444
2023-05-14T13:04:58.658Z,421
2023-05-14T13:06:07.000Z,410
2023-05-14T13:07:29.827Z,393
2023-05-14T13:08:46.260Z,388
2023-05-14T13:10:02.000Z,388
2023-05-14T13:11:18.413Z,360
2023-05-14T13:12:27.000Z,354
2023-05-14T13:13:43.000Z,348
2023-05-14T13:15:07.247Z,343
2023-05-14T13:16:23.446Z,337
2023-05-14T13:17:39.641Z,331
2023-05-14T13:18:48.000Z,343
2023-05-14T13:20:12.031Z,320
2023-05-14T13:21:27.979Z,343
2023-05-14T13:22:44.418Z,388
2023-05-14T13:25:15.828Z,461
2023-05-14T13:26:32.018Z,478
2023-05-14T13:27:48.215Z,500
2023-05-14T13:29:04.410Z,506
2023-05-14T13:30:20.364Z,483
2023-05-14T13:31:29.000Z,455
2023-05-14T13:32:45.000Z,466
2023-05-14T13:34:01.000Z,472
2023-05-14T13:35:25.392Z,466
2023-05-14T13:36:33.000Z,472
2023-05-14T13:37:57.788Z,466
2023-05-14T13:39:06.000Z,444
2023-05-14T13:40:21.000Z,427
2023-05-14T13:41:37.000Z,427
2023-05-14T13:42:53.000Z,433
2023-05-14T13:44:17.533Z,455
2023-05-14T13:45:33.968Z,455
2023-05-14T13:46:42.000Z,461
2023-05-14T13:48:06.375Z,466
2023-05-14T13:49:14.000Z,472
2023-05-14T13:50:30.000Z,450
2023-05-14T13:51:47.000Z,421
2023-05-14T13:53:11.151Z,393
2023-05-14T13:54:27.341Z,360
2023-05-14T13:55:35.000Z,354
2023-05-14T13:56:50.000Z,343
2023-05-14T13:58:14.703Z,326
2023-05-14T13:59:31.144Z,326
2023-05-14T14:00:47.340Z,337
2023-05-14T14:01:55.000Z,365
2023-05-14T14:03:11.000Z,393
2023-05-14T14:04:28.000Z,410
2023-05-14T14:05:44.000Z,405
2023-05-14T14:07:08.320Z,405
2023-05-14T14:08:16.000Z,421
2023-05-14T14:09:32.000Z,421
2023-05-14T14:10:56.910Z,416
2023-05-14T14:12:12.856Z,405
2023-05-14T14:13:20.000Z,393
2023-05-14T14:14:44.507Z,399
2023-05-14T14:16:00.703Z,388
2023-05-14T14:17:09.000Z,393
2023-05-14T14:18:33.089Z,376
2023-05-14T14:19:49.287Z,365
2023-05-14T14:20:57.000Z,365
2023-05-14T14:22:13.000Z,382
2023-05-14T14:23:37.882Z,393
2023-05-14T14:24:54.073Z,343
2023-05-14T14:26:10.271Z,337
2023-05-14T14:27:26.476Z,315
2023-05-14T14:28:34.000Z,320
2023-05-14T14:29:57.627Z,320
2023-05-14T14:31:13.824Z,315
2023-05-14T14:32:22.000Z,331
2023-05-14T14:33:38.000Z,354
2023-05-14T14:34:54.000Z,343
2023-05-14T14:36:18.864Z,337
2023-05-14T14:37:34.072Z,337
2023-05-14T14:38:30.000Z,292
2023-05-14T14:38:50.019Z,315
2023-05-14T14:40:06.214Z,298
2023-05-14T14:41:14.000Z,298
2023-05-14T14:42:38.849Z,286
2023-05-14T14:43:47.000Z,275
2023-05-14T14:46:19.000Z,320
2023-05-14T14:47:35.000Z,331
2023-05-14T14:48:59.828Z,320
2023-05-14T14:50:08.000Z,337
2023-05-14T14:51:24.000Z,320
2023-05-14T14:52:48.421Z,354
2023-05-14T14:53:55.000Z,360
2023-05-14T14:55:12.000Z,354
2023-05-14T14:56:16.000Z,298
2023-05-14T14:56:35.774Z,337
2023-05-14T14:57:44.000Z,326
2023-05-14T14:59:00.000Z,309
2023-05-14T15:00:16.000Z,298
2023-05-14T15:01:40.805Z,298
2023-05-14T15:04:05.000Z,298
2023-05-14T15:05:29.143Z,292
2023-05-14T15:06:37.000Z,298
2023-05-14T15:08:01.783Z,309
2023-05-14T15:09:10.000Z,320
2023-05-14T15:10:25.000Z,320
2023-05-14T15:11:41.000Z,326
2023-05-14T15:12:57.000Z,320
2023-05-14T15:14:21.774Z,315
2023-05-14T15:15:30.000Z,303
2023-05-14T15:16:53.920Z,298
2023-05-14T15:18:02.000Z,292
2023-05-14T15:19:18.000Z,303
2023-05-14T15:20:34.000Z,298
2023-05-14T15:21:58.702Z,292
2023-05-14T15:23:07.000Z,286
2023-05-14T15:24:31.094Z,281
2023-05-14T15:25:39.000Z,270
2023-05-14T15:27:02.501Z,270
2023-05-14T15:28:18.937Z,247
2023-05-14T15:29:27.000Z,225
2023-05-14T15:30:43.000Z,225
2023-05-14T15:31:59.000Z,225
2023-05-14T15:33:15.000Z,230
2023-05-14T15:34:39.674Z,241
2023-05-14T15:35:48.000Z,253
2023-05-14T15:37:12.313Z,281
2023-05-14T15:38:08.000Z,225
2023-05-14T15:38:28.505Z,309
2023-05-14T15:39:44.457Z,298
2023-05-14T15:40:53.000Z,298
2023-05-14T15:42:17.098Z,264
2023-05-14T15:43:32.347Z,241
2023-05-14T15:46:04.451Z,236
2023-05-14T15:47:13.000Z,241
2023-05-14T15:48:37.087Z,247
2023-05-14T15:49:53.282Z,247
2023-05-14T15:51:01.000Z,253
2023-05-14T15:52:25.429Z,264
2023-05-14T15:53:34.000Z,292
2023-05-14T15:54:50.000Z,315
2023-05-14T15:56:14.266Z,320
2023-05-14T15:57:30.468Z,320
2023-05-14T15:58:38.000Z,303
2023-05-14T16:00:01.618Z,258
2023-05-14T16:01:17.814Z,219
2023-05-14T16:02:34.010Z,163
2023-05-14T16:03:42.000Z,135
2023-05-14T16:05:06.651Z,112
2023-05-14T16:06:22.844Z,106
2023-05-14T16:07:31.000Z,95
2023-05-14T16:08:54.987Z,95
2023-05-14T16:10:11.183Z,84
2023-05-14T16:11:27.626Z,90
2023-05-14T16:12:35.000Z,90
2023-05-14T16:13:52.000Z,95
2023-05-14T16:15:16.207Z,101
2023-05-14T16:16:23.000Z,106
2023-05-14T16:17:47.622Z,112
2023-05-14T16:19:03.816Z,118
2023-05-14T16:20:12.000Z,129
2023-05-14T16:21:28.000Z,135
2023-05-14T16:22:44.000Z,146
2023-05-14T16:24:00.000Z,157
2023-05-14T16:25:16.000Z,157
2023-05-14T16:26:33.000Z,174
2023-05-14T16:27:49.000Z,196
2023-05-14T16:29:13.377Z,208
2023-05-14T16:30:21.000Z,208
2023-05-14T16:31:37.000Z,196
2023-05-14T16:33:00.982Z,196
2023-05-14T16:34:09.000Z,225
2023-05-14T16:35:33.129Z,219
2023-05-14T16:36:41.000Z,219
2023-05-14T16:37:57.000Z,219
2023-05-14T16:39:21.717Z,213
2023-05-14T16:40:30.000Z,196
2023-05-14T16:41:46.000Z,191
2023-05-14T16:43:02.000Z,191
2023-05-14T16:44:18.000Z,185
2023-05-14T16:45:35.000Z,174
2023-05-14T16:46:51.000Z,168
2023-05-14T16:48:15.333Z,163
2023-05-14T16:49:22.000Z,163
2023-05-14T16:50:38.000Z,157
2023-05-14T16:52:02.947Z,163
2023-05-14T16:53:19.128Z,163
2023-05-14T16:54:27.000Z,163
2023-05-14T16:55:43.000Z,157
2023-05-14T16:56:59.000Z,157
2023-05-14T16:58:23.918Z,157
2023-05-14T16:59:40.110Z,163
2023-05-14T17:00:56.308Z,163
2023-05-14T17:02:04.000Z,151
2023-05-14T17:03:20.000Z,146
2023-05-14T17:04:44.649Z,140
2023-05-14T17:05:59.862Z,140
2023-05-14T17:07:08.000Z,140
2023-05-14T17:08:32.507Z,146
2023-05-14T17:09:40.000Z,146
2023-05-14T17:10:57.000Z,151
2023-05-14T17:12:13.000Z,151
2023-05-14T17:13:37.038Z,146
2023-05-14T17:14:45.000Z,146
2023-05-14T17:16:01.000Z,151
2023-05-14T17:17:25.627Z,146
2023-05-14T17:18:42.071Z,146
2023-05-14T17:19:50.000Z,140
2023-05-14T17:20:53.000Z,123
2023-05-14T17:21:14.216Z,140
2023-05-14T17:22:29.428Z,135
2023-05-14T17:23:45.624Z,135
2023-05-14T17:25:01.820Z,135
2023-05-14T17:26:18.016Z,129
2023-05-14T17:28:31.000Z,106
2023-05-14T17:28:50.660Z,118
2023-05-14T17:29:58.000Z,118
2023-05-14T17:31:22.801Z,118
2023-05-14T17:32:39.250Z,118
2023-05-14T17:33:47.000Z,112
2023-05-14T17:36:27.586Z,101
2023-05-14T17:37:43.781Z,95
2023-05-14T17:38:51.000Z,95
2023-05-14T17:40:07.000Z,90
2023-05-14T17:41:31.636Z,84
2023-05-14T17:42:39.000Z,84
2023-05-14T17:44:03.780Z,78
2023-05-14T17:45:20.217Z,78
2023-05-14T17:46:28.000Z,73
2023-05-14T17:47:52.612Z,67
2023-05-14T17:48:49.000Z,56